sensor_id;sensor_type;location;lat;lon;timestamp;temperature;humidity
65854;DHT22;52627;48.838;2.402;2022-07-01T00:00:24;16.27;68.98
65854;DHT22;52627;48.838;2.402;2022-07-01T00:02:52;16.25;69.00
65854;DHT22;52627;48.838;2.402;2022-07-01T00:05:20;16.22;69.01
65854;DHT22;52627;48.838;2.402;2022-07-01T00:07:47;16.20;69.09
65854;DHT22;52627;48.838;2.402;2022-07-01T00:10:15;16.18;69.10
65854;DHT22;52627;48.838;2.402;2022-07-01T00:12:43;16.15;69.19
65854;DHT22;52627;48.838;2.402;2022-07-01T00:15:11;16.13;69.24
65854;DHT22;52627;48.838;2.402;2022-07-01T00:17:39;16.10;69.26
65854;DHT22;52627;48.838;2.402;2022-07-01T00:20:11;16.08;69.32
65854;DHT22;52627;48.838;2.402;2022-07-01T00:22:38;16.08;69.39
65854;DHT22;52627;48.838;2.402;2022-07-01T00:25:06;16.03;69.40
65854;DHT22;52627;48.838;2.402;2022-07-01T00:27:41;16.01;69.47
65854;DHT22;52627;48.838;2.402;2022-07-01T00:30:09;15.99;69.51
65854;DHT22;52627;48.838;2.402;2022-07-01T00:32:37;15.98;69.59
65854;DHT22;52627;48.838;2.402;2022-07-01T00:35:05;15.96;69.62
65854;DHT22;52627;48.838;2.402;2022-07-01T00:37:33;15.92;69.70
65854;DHT22;52627;48.838;2.402;2022-07-01T00:40:00;15.91;69.73
65854;DHT22;52627;48.838;2.402;2022-07-01T00:42:28;15.88;69.79
65854;DHT22;52627;48.838;2.402;2022-07-01T00:44:55;15.85;69.83
65854;DHT22;52627;48.838;2.402;2022-07-01T00:47:23;15.80;69.89
65854;DHT22;52627;48.838;2.402;2022-07-01T00:49:52;15.77;69.95
65854;DHT22;52627;48.838;2.402;2022-07-01T00:52:19;15.75;70.00
65854;DHT22;52627;48.838;2.402;2022-07-01T00:54:47;15.73;70.07
65854;DHT22;52627;48.838;2.402;2022-07-01T00:57:15;15.71;70.10
65854;DHT22;52627;48.838;2.402;2022-07-01T00:59:42;15.70;70.18
65854;DHT22;52627;48.838;2.402;2022-07-01T01:02:10;15.67;70.22
65854;DHT22;52627;48.838;2.402;2022-07-01T01:04:38;15.65;70.30
65854;DHT22;52627;48.838;2.402;2022-07-01T01:07:06;15.62;70.39
65854;DHT22;52627;48.838;2.402;2022-07-01T01:09:34;15.60;70.44
65854;DHT22;52627;48.838;2.402;2022-07-01T01:12:01;15.59;70.50
65854;DHT22;52627;48.838;2.402;2022-07-01T01:14:29;15.58;70.58
65854;DHT22;52627;48.838;2.402;2022-07-01T01:16:57;15.57;70.66
65854;DHT22;52627;48.838;2.402;2022-07-01T01:19:24;15.55;70.72
65854;DHT22;52627;48.838;2.402;2022-07-01T01:21:52;15.53;70.78
65854;DHT22;52627;48.838;2.402;2022-07-01T01:24:20;15.52;70.87
65854;DHT22;52627;48.838;2.402;2022-07-01T01:26:48;15.51;70.91
65854;DHT22;52627;48.838;2.402;2022-07-01T01:29:15;15.50;70.99
65854;DHT22;52627;48.838;2.402;2022-07-01T01:31:43;15.49;71.05
65854;DHT22;52627;48.838;2.402;2022-07-01T01:34:11;15.47;71.15
65854;DHT22;52627;48.838;2.402;2022-07-01T01:36:38;15.45;71.23
65854;DHT22;52627;48.838;2.402;2022-07-01T01:39:06;15.44;71.31
65854;DHT22;52627;48.838;2.402;2022-07-01T01:41:43;15.41;71.42
65854;DHT22;52627;48.838;2.402;2022-07-01T01:44:12;15.39;71.50
65854;DHT22;52627;48.838;2.402;2022-07-01T01:46:40;15.38;71.56
65854;DHT22;52627;48.838;2.402;2022-07-01T01:49:08;15.35;71.61
65854;DHT22;52627;48.838;2.402;2022-07-01T01:51:36;15.33;71.71
65854;DHT22;52627;48.838;2.402;2022-07-01T01:54:04;15.30;71.75
65854;DHT22;52627;48.838;2.402;2022-07-01T01:56:31;15.28;71.83
65854;DHT22;52627;48.838;2.402;2022-07-01T01:58:59;15.27;71.85
65854;DHT22;52627;48.838;2.402;2022-07-01T02:01:27;15.26;71.90
65854;DHT22;52627;48.838;2.402;2022-07-01T02:03:54;15.25;71.97
65854;DHT22;52627;48.838;2.402;2022-07-01T02:06:22;15.23;72.04
65854;DHT22;52627;48.838;2.402;2022-07-01T02:08:50;15.22;72.11
65854;DHT22;52627;48.838;2.402;2022-07-01T02:11:17;15.20;72.16
65854;DHT22;52627;48.838;2.402;2022-07-01T02:13:45;15.19;72.19
65854;DHT22;52627;48.838;2.402;2022-07-01T02:16:12;15.17;72.24
65854;DHT22;52627;48.838;2.402;2022-07-01T02:18:40;15.17;72.33
65854;DHT22;52627;48.838;2.402;2022-07-01T02:21:07;15.15;72.40
65854;DHT22;52627;48.838;2.402;2022-07-01T02:23:37;15.14;72.40
65854;DHT22;52627;48.838;2.402;2022-07-01T02:26:05;15.13;72.45
65854;DHT22;52627;48.838;2.402;2022-07-01T02:28:33;15.12;72.50
65854;DHT22;52627;48.838;2.402;2022-07-01T02:31:01;15.11;72.57
65854;DHT22;52627;48.838;2.402;2022-07-01T02:33:30;15.10;72.61
65854;DHT22;52627;48.838;2.402;2022-07-01T02:35:58;15.09;72.68
65854;DHT22;52627;48.838;2.402;2022-07-01T02:38:25;15.07;72.72
65854;DHT22;52627;48.838;2.402;2022-07-01T02:40:53;15.07;72.77
65854;DHT22;52627;48.838;2.402;2022-07-01T02:43:20;15.05;72.84
65854;DHT22;52627;48.838;2.402;2022-07-01T02:45:48;15.04;72.91
65854;DHT22;52627;48.838;2.402;2022-07-01T02:48:15;15.03;72.99
65854;DHT22;52627;48.838;2.402;2022-07-01T02:50:43;15.02;73.11
65854;DHT22;52627;48.838;2.402;2022-07-01T02:53:10;15.02;73.20
65854;DHT22;52627;48.838;2.402;2022-07-01T02:55:38;15.00;73.29
65854;DHT22;52627;48.838;2.402;2022-07-01T02:58:06;14.99;73.30
65854;DHT22;52627;48.838;2.402;2022-07-01T03:00:34;14.98;73.33
65854;DHT22;52627;48.838;2.402;2022-07-01T03:03:02;14.97;73.40
65854;DHT22;52627;48.838;2.402;2022-07-01T03:05:30;14.97;73.44
65854;DHT22;52627;48.838;2.402;2022-07-01T03:07:57;14.97;73.49
65854;DHT22;52627;48.838;2.402;2022-07-01T03:10:25;14.97;73.50
65854;DHT22;52627;48.838;2.402;2022-07-01T03:12:53;14.98;73.52
65854;DHT22;52627;48.838;2.402;2022-07-01T03:15:21;14.98;73.51
65854;DHT22;52627;48.838;2.402;2022-07-01T03:17:48;14.97;73.56
65854;DHT22;52627;48.838;2.402;2022-07-01T03:20:17;14.97;73.54
65854;DHT22;52627;48.838;2.402;2022-07-01T03:22:45;14.98;73.55
65854;DHT22;52627;48.838;2.402;2022-07-01T03:25:13;14.98;73.59
65854;DHT22;52627;48.838;2.402;2022-07-01T03:27:41;14.99;73.60
65854;DHT22;52627;48.838;2.402;2022-07-01T03:30:13;14.99;73.60
65854;DHT22;52627;48.838;2.402;2022-07-01T03:32:42;15.00;73.55
65854;DHT22;52627;48.838;2.402;2022-07-01T03:35:09;15.00;73.52
65854;DHT22;52627;48.838;2.402;2022-07-01T03:37:56;15.01;73.49
65854;DHT22;52627;48.838;2.402;2022-07-01T03:40:24;15.01;73.40
65854;DHT22;52627;48.838;2.402;2022-07-01T03:42:52;15.01;73.35
65854;DHT22;52627;48.838;2.402;2022-07-01T03:45:19;15.01;73.30
65854;DHT22;52627;48.838;2.402;2022-07-01T03:47:48;15.01;73.30
65854;DHT22;52627;48.838;2.402;2022-07-01T03:50:17;15.00;73.30
65854;DHT22;52627;48.838;2.402;2022-07-01T03:52:48;15.02;73.29
65854;DHT22;52627;48.838;2.402;2022-07-01T03:55:16;15.01;73.27
65854;DHT22;52627;48.838;2.402;2022-07-01T03:57:43;15.00;73.21
65854;DHT22;52627;48.838;2.402;2022-07-01T04:00:11;14.98;73.20
65854;DHT22;52627;48.838;2.402;2022-07-01T04:02:46;14.98;73.20
65854;DHT22;52627;48.838;2.402;2022-07-01T04:05:16;14.99;73.20
65854;DHT22;52627;48.838;2.402;2022-07-01T04:07:43;14.99;73.20
65854;DHT22;52627;48.838;2.402;2022-07-01T04:10:11;15.00;73.20
65854;DHT22;52627;48.838;2.402;2022-07-01T04:12:39;15.01;73.20
65854;DHT22;52627;48.838;2.402;2022-07-01T04:15:15;15.01;73.19
65854;DHT22;52627;48.838;2.402;2022-07-01T04:17:43;15.01;73.15
65854;DHT22;52627;48.838;2.402;2022-07-01T04:20:10;15.00;73.12
65854;DHT22;52627;48.838;2.402;2022-07-01T04:22:38;15.01;73.10
65854;DHT22;52627;48.838;2.402;2022-07-01T04:25:06;15.00;73.10
65854;DHT22;52627;48.838;2.402;2022-07-01T04:27:34;14.99;73.10
65854;DHT22;52627;48.838;2.402;2022-07-01T04:30:02;15.00;73.10
65854;DHT22;52627;48.838;2.402;2022-07-01T04:32:30;15.01;73.10
65854;DHT22;52627;48.838;2.402;2022-07-01T04:34:57;15.01;73.10
65854;DHT22;52627;48.838;2.402;2022-07-01T04:37:25;15.01;73.09
65854;DHT22;52627;48.838;2.402;2022-07-01T04:39:52;15.01;73.10
65854;DHT22;52627;48.838;2.402;2022-07-01T04:42:20;15.03;73.10
65854;DHT22;52627;48.838;2.402;2022-07-01T04:44:49;15.03;73.10
65854;DHT22;52627;48.838;2.402;2022-07-01T04:47:17;15.04;73.10
65854;DHT22;52627;48.838;2.402;2022-07-01T04:49:45;15.06;73.10
65854;DHT22;52627;48.838;2.402;2022-07-01T04:52:12;15.08;73.10
65854;DHT22;52627;48.838;2.402;2022-07-01T04:54:40;15.11;73.10
65854;DHT22;52627;48.838;2.402;2022-07-01T04:57:08;15.14;73.05
65854;DHT22;52627;48.838;2.402;2022-07-01T04:59:36;15.17;73.02
65854;DHT22;52627;48.838;2.402;2022-07-01T05:02:04;15.20;73.00
65854;DHT22;52627;48.838;2.402;2022-07-01T05:04:38;15.22;72.92
65854;DHT22;52627;48.838;2.402;2022-07-01T05:07:08;15.25;72.90
65854;DHT22;52627;48.838;2.402;2022-07-01T05:09:55;15.28;72.91
65854;DHT22;52627;48.838;2.402;2022-07-01T05:12:23;15.31;72.90
65854;DHT22;52627;48.838;2.402;2022-07-01T05:14:51;15.35;72.86
65854;DHT22;52627;48.838;2.402;2022-07-01T05:17:18;15.40;72.81
65854;DHT22;52627;48.838;2.402;2022-07-01T05:19:46;15.44;72.78
65854;DHT22;52627;48.838;2.402;2022-07-01T05:22:32;15.48;72.70
65854;DHT22;52627;48.838;2.402;2022-07-01T05:24:59;15.52;72.64
65854;DHT22;52627;48.838;2.402;2022-07-01T05:27:27;15.56;72.55
65854;DHT22;52627;48.838;2.402;2022-07-01T05:29:54;15.59;72.45
65854;DHT22;52627;48.838;2.402;2022-07-01T05:32:22;15.63;72.37
65854;DHT22;52627;48.838;2.402;2022-07-01T05:34:50;15.68;72.31
65854;DHT22;52627;48.838;2.402;2022-07-01T05:37:17;15.72;72.20
65854;DHT22;52627;48.838;2.402;2022-07-01T05:39:47;15.77;72.13
65854;DHT22;52627;48.838;2.402;2022-07-01T05:42:17;15.82;72.03
65854;DHT22;52627;48.838;2.402;2022-07-01T05:44:45;15.87;71.83
65854;DHT22;52627;48.838;2.402;2022-07-01T05:47:12;15.91;71.70
65854;DHT22;52627;48.838;2.402;2022-07-01T05:49:40;15.95;71.56
65854;DHT22;52627;48.838;2.402;2022-07-01T05:52:07;16.00;71.49
65854;DHT22;52627;48.838;2.402;2022-07-01T05:54:35;16.05;71.36
65854;DHT22;52627;48.838;2.402;2022-07-01T05:57:03;16.11;71.21
65854;DHT22;52627;48.838;2.402;2022-07-01T05:59:35;16.15;71.03
65854;DHT22;52627;48.838;2.402;2022-07-01T06:02:03;16.19;70.86
65854;DHT22;52627;48.838;2.402;2022-07-01T06:04:31;16.24;70.74
65854;DHT22;52627;48.838;2.402;2022-07-01T06:06:59;16.31;70.57
65854;DHT22;52627;48.838;2.402;2022-07-01T06:09:26;16.39;70.45
65854;DHT22;52627;48.838;2.402;2022-07-01T06:11:54;16.47;70.27
65854;DHT22;52627;48.838;2.402;2022-07-01T06:14:21;16.57;70.10
65854;DHT22;52627;48.838;2.402;2022-07-01T06:16:49;16.70;69.89
65854;DHT22;52627;48.838;2.402;2022-07-01T06:19:17;16.88;69.62
65854;DHT22;52627;48.838;2.402;2022-07-01T06:21:44;17.07;69.41
65854;DHT22;52627;48.838;2.402;2022-07-01T06:24:12;17.27;69.05
65854;DHT22;52627;48.838;2.402;2022-07-01T06:26:40;17.45;68.84
65854;DHT22;52627;48.838;2.402;2022-07-01T06:29:07;17.72;68.55
65854;DHT22;52627;48.838;2.402;2022-07-01T06:31:35;18.02;68.15
65854;DHT22;52627;48.838;2.402;2022-07-01T06:34:03;18.33;67.74
65854;DHT22;52627;48.838;2.402;2022-07-01T06:36:30;18.64;67.21
65854;DHT22;52627;48.838;2.402;2022-07-01T06:38:58;18.90;66.65
65854;DHT22;52627;48.838;2.402;2022-07-01T06:41:25;19.17;66.03
65854;DHT22;52627;48.838;2.402;2022-07-01T06:43:57;19.46;65.54
65854;DHT22;52627;48.838;2.402;2022-07-01T06:46:28;19.75;65.07
65854;DHT22;52627;48.838;2.402;2022-07-01T06:48:57;20.07;64.39
65854;DHT22;52627;48.838;2.402;2022-07-01T06:51:26;20.35;63.86
65854;DHT22;52627;48.838;2.402;2022-07-01T06:53:55;20.76;63.60
65854;DHT22;52627;48.838;2.402;2022-07-01T06:56:23;21.20;63.05
65854;DHT22;52627;48.838;2.402;2022-07-01T06:58:51;21.75;62.87
65854;DHT22;52627;48.838;2.402;2022-07-01T07:01:19;22.30;61.93
65854;DHT22;52627;48.838;2.402;2022-07-01T07:03:47;22.69;61.29
65854;DHT22;52627;48.838;2.402;2022-07-01T07:06:14;23.19;60.78
65854;DHT22;52627;48.838;2.402;2022-07-01T07:08:42;23.72;59.86
65854;DHT22;52627;48.838;2.402;2022-07-01T07:11:09;24.17;58.99
65854;DHT22;52627;48.838;2.402;2022-07-01T07:13:37;24.60;58.24
65854;DHT22;52627;48.838;2.402;2022-07-01T07:16:05;25.02;57.01
65854;DHT22;52627;48.838;2.402;2022-07-01T07:18:32;25.29;56.32
65854;DHT22;52627;48.838;2.402;2022-07-01T07:21:00;25.65;55.66
65854;DHT22;52627;48.838;2.402;2022-07-01T07:23:29;26.05;54.55
65854;DHT22;52627;48.838;2.402;2022-07-01T07:25:57;26.31;53.59
65854;DHT22;52627;48.838;2.402;2022-07-01T07:28:24;26.63;52.91
65854;DHT22;52627;48.838;2.402;2022-07-01T07:30:52;27.03;51.98
65854;DHT22;52627;48.838;2.402;2022-07-01T07:33:19;27.36;50.98
65854;DHT22;52627;48.838;2.402;2022-07-01T07:35:47;27.65;50.05
65854;DHT22;52627;48.838;2.402;2022-07-01T07:38:15;27.97;49.02
65854;DHT22;52627;48.838;2.402;2022-07-01T07:40:42;28.26;48.12
65854;DHT22;52627;48.838;2.402;2022-07-01T07:43:10;28.62;47.21
65854;DHT22;52627;48.838;2.402;2022-07-01T07:45:38;28.86;45.90
65854;DHT22;52627;48.838;2.402;2022-07-01T07:48:05;28.96;45.17
65854;DHT22;52627;48.838;2.402;2022-07-01T07:50:33;29.09;44.50
65854;DHT22;52627;48.838;2.402;2022-07-01T07:53:01;29.30;43.56
65854;DHT22;52627;48.838;2.402;2022-07-01T07:55:29;29.52;42.71
65854;DHT22;52627;48.838;2.402;2022-07-01T07:57:56;29.78;41.69
65854;DHT22;52627;48.838;2.402;2022-07-01T08:00:24;29.84;40.48
65854;DHT22;52627;48.838;2.402;2022-07-01T08:02:51;29.81;39.68
65854;DHT22;52627;48.838;2.402;2022-07-01T08:05:19;29.90;39.10
65854;DHT22;52627;48.838;2.402;2022-07-01T08:07:46;30.01;38.30
65854;DHT22;52627;48.838;2.402;2022-07-01T08:10:14;30.08;37.54
65854;DHT22;52627;48.838;2.402;2022-07-01T08:12:42;30.05;36.85
65854;DHT22;52627;48.838;2.402;2022-07-01T08:15:09;29.99;36.35
65854;DHT22;52627;48.838;2.402;2022-07-01T08:17:37;30.19;36.09
65854;DHT22;52627;48.838;2.402;2022-07-01T08:20:05;30.33;35.52
65854;DHT22;52627;48.838;2.402;2022-07-01T08:22:33;30.42;35.02
65854;DHT22;52627;48.838;2.402;2022-07-01T08:25:01;30.51;34.56
65854;DHT22;52627;48.838;2.402;2022-07-01T08:27:30;30.50;34.06
65854;DHT22;52627;48.838;2.402;2022-07-01T08:29:58;30.59;33.90
65854;DHT22;52627;48.838;2.402;2022-07-01T08:32:25;30.78;33.53
65854;DHT22;52627;48.838;2.402;2022-07-01T08:34:53;30.87;32.98
65854;DHT22;52627;48.838;2.402;2022-07-01T08:37:21;30.86;32.74
65854;DHT22;52627;48.838;2.402;2022-07-01T08:39:48;30.92;32.37
65854;DHT22;52627;48.838;2.402;2022-07-01T08:42:16;30.95;31.90
65854;DHT22;52627;48.838;2.402;2022-07-01T08:44:43;30.85;31.45
65854;DHT22;52627;48.838;2.402;2022-07-01T08:47:11;30.72;31.07
65854;DHT22;52627;48.838;2.402;2022-07-01T08:49:40;30.70;30.87
65854;DHT22;52627;48.838;2.402;2022-07-01T08:52:08;30.75;30.72
65854;DHT22;52627;48.838;2.402;2022-07-01T08:54:36;30.88;30.45
65854;DHT22;52627;48.838;2.402;2022-07-01T08:57:06;30.82;30.21
65854;DHT22;52627;48.838;2.402;2022-07-01T08:59:35;30.92;30.23
65854;DHT22;52627;48.838;2.402;2022-07-01T09:02:03;31.14;30.06
65854;DHT22;52627;48.838;2.402;2022-07-01T09:04:32;31.12;29.78
65854;DHT22;52627;48.838;2.402;2022-07-01T09:07:02;31.19;29.85
65854;DHT22;52627;48.838;2.402;2022-07-01T09:09:36;31.27;29.61
65854;DHT22;52627;48.838;2.402;2022-07-01T09:12:06;31.34;29.41
65854;DHT22;52627;48.838;2.402;2022-07-01T09:14:34;31.40;29.32
65854;DHT22;52627;48.838;2.402;2022-07-01T09:17:04;31.51;29.27
65854;DHT22;52627;48.838;2.402;2022-07-01T09:19:36;31.66;29.16
65854;DHT22;52627;48.838;2.402;2022-07-01T09:22:12;31.68;28.80
65854;DHT22;52627;48.838;2.402;2022-07-01T09:24:40;31.68;28.77
65854;DHT22;52627;48.838;2.402;2022-07-01T09:27:11;31.31;28.57
65854;DHT22;52627;48.838;2.402;2022-07-01T09:29:44;30.94;28.61
65854;DHT22;52627;48.838;2.402;2022-07-01T09:32:18;30.87;28.52
65854;DHT22;52627;48.838;2.402;2022-07-01T09:34:50;30.75;28.54
65854;DHT22;52627;48.838;2.402;2022-07-01T09:37:24;30.67;28.57
65854;DHT22;52627;48.838;2.402;2022-07-01T09:39:57;30.21;28.66
65854;DHT22;52627;48.838;2.402;2022-07-01T09:42:25;30.16;28.74
65854;DHT22;52627;48.838;2.402;2022-07-01T09:44:56;29.70;28.84
65854;DHT22;52627;48.838;2.402;2022-07-01T09:47:41;29.19;28.94
65854;DHT22;52627;48.838;2.402;2022-07-01T09:50:12;28.59;29.13
65854;DHT22;52627;48.838;2.402;2022-07-01T09:52:39;28.19;29.34
65854;DHT22;52627;48.838;2.402;2022-07-01T09:55:08;28.10;29.54
65854;DHT22;52627;48.838;2.402;2022-07-01T09:57:36;28.14;29.73
65854;DHT22;52627;48.838;2.402;2022-07-01T10:00:04;28.22;30.00
65854;DHT22;52627;48.838;2.402;2022-07-01T10:02:34;28.40;29.98
65854;DHT22;52627;48.838;2.402;2022-07-01T10:05:09;28.49;30.11
65854;DHT22;52627;48.838;2.402;2022-07-01T10:14:02;29.61;30.20
65854;DHT22;52627;48.838;2.402;2022-07-01T10:16:31;29.71;29.99
65854;DHT22;52627;48.838;2.402;2022-07-01T10:19:23;29.56;29.92
65854;DHT22;52627;48.838;2.402;2022-07-01T10:21:53;29.11;29.90
65854;DHT22;52627;48.838;2.402;2022-07-01T10:24:25;29.01;29.86
65854;DHT22;52627;48.838;2.402;2022-07-01T10:27:00;29.11;29.87
65854;DHT22;52627;48.838;2.402;2022-07-01T10:29:35;29.25;29.82
65854;DHT22;52627;48.838;2.402;2022-07-01T10:32:09;29.44;29.76
65854;DHT22;52627;48.838;2.402;2022-07-01T10:35:14;29.65;29.83
65854;DHT22;52627;48.838;2.402;2022-07-01T10:37:56;29.76;29.83
65854;DHT22;52627;48.838;2.402;2022-07-01T10:40:41;29.92;29.71
65854;DHT22;52627;48.838;2.402;2022-07-01T10:43:16;30.05;29.80
65854;DHT22;52627;48.838;2.402;2022-07-01T10:46:00;30.21;29.60
65854;DHT22;52627;48.838;2.402;2022-07-01T10:48:30;30.25;29.42
65854;DHT22;52627;48.838;2.402;2022-07-01T10:51:00;29.96;29.23
65854;DHT22;52627;48.838;2.402;2022-07-01T10:53:50;29.60;29.18
65854;DHT22;52627;48.838;2.402;2022-07-01T10:56:23;29.14;29.18
65854;DHT22;52627;48.838;2.402;2022-07-01T10:59:06;28.67;29.11
65854;DHT22;52627;48.838;2.402;2022-07-01T11:01:34;28.51;29.16
65854;DHT22;52627;48.838;2.402;2022-07-01T11:04:02;28.33;29.20
65854;DHT22;52627;48.838;2.402;2022-07-01T11:06:30;27.97;29.29
65854;DHT22;52627;48.838;2.402;2022-07-01T11:09:03;27.91;29.28
65854;DHT22;52627;48.838;2.402;2022-07-01T11:11:30;27.64;29.34
65854;DHT22;52627;48.838;2.402;2022-07-01T11:13:58;27.33;29.55
65854;DHT22;52627;48.838;2.402;2022-07-01T11:16:27;26.92;29.90
65854;DHT22;52627;48.838;2.402;2022-07-01T11:18:57;26.52;30.17
65854;DHT22;52627;48.838;2.402;2022-07-01T11:21:24;26.09;30.45
65854;DHT22;52627;48.838;2.402;2022-07-01T11:23:53;25.68;30.83
65854;DHT22;52627;48.838;2.402;2022-07-01T11:26:25;25.36;31.25
65854;DHT22;52627;48.838;2.402;2022-07-01T11:28:53;25.10;31.63
65854;DHT22;52627;48.838;2.402;2022-07-01T11:31:28;24.89;31.89
65854;DHT22;52627;48.838;2.402;2022-07-01T11:33:58;24.80;32.17
65854;DHT22;52627;48.838;2.402;2022-07-01T11:36:25;24.80;32.40
65854;DHT22;52627;48.838;2.402;2022-07-01T11:39:11;25.11;32.61
65854;DHT22;52627;48.838;2.402;2022-07-01T11:41:55;25.64;32.69
65854;DHT22;52627;48.838;2.402;2022-07-01T11:44:33;26.01;32.73
65854;DHT22;52627;48.838;2.402;2022-07-01T11:47:08;26.48;32.93
65854;DHT22;52627;48.838;2.402;2022-07-01T11:49:45;26.83;32.73
65854;DHT22;52627;48.838;2.402;2022-07-01T11:52:16;26.85;32.79
65854;DHT22;52627;48.838;2.402;2022-07-01T11:54:46;26.78;32.75
65854;DHT22;52627;48.838;2.402;2022-07-01T11:57:18;26.71;32.88
65854;DHT22;52627;48.838;2.402;2022-07-01T11:59:51;26.70;32.84
65854;DHT22;52627;48.838;2.402;2022-07-01T12:02:22;26.94;32.80
65854;DHT22;52627;48.838;2.402;2022-07-01T12:04:51;27.31;32.75
65854;DHT22;52627;48.838;2.402;2022-07-01T12:07:20;27.70;32.45
65854;DHT22;52627;48.838;2.402;2022-07-01T12:09:48;27.61;32.21
65854;DHT22;52627;48.838;2.402;2022-07-01T12:12:17;27.40;32.27
65854;DHT22;52627;48.838;2.402;2022-07-01T12:14:50;27.13;32.13
65854;DHT22;52627;48.838;2.402;2022-07-01T12:17:20;26.79;32.16
65854;DHT22;52627;48.838;2.402;2022-07-01T12:19:49;26.56;32.19
65854;DHT22;52627;48.838;2.402;2022-07-01T12:22:22;26.38;32.17
65854;DHT22;52627;48.838;2.402;2022-07-01T12:25:04;26.24;32.20
65854;DHT22;52627;48.838;2.402;2022-07-01T12:27:38;26.08;32.44
65854;DHT22;52627;48.838;2.402;2022-07-01T12:30:08;26.03;32.51
65854;DHT22;52627;48.838;2.402;2022-07-01T12:32:40;26.01;32.59
65854;DHT22;52627;48.838;2.402;2022-07-01T12:35:10;25.85;32.49
65854;DHT22;52627;48.838;2.402;2022-07-01T12:38:14;25.65;32.64
65854;DHT22;52627;48.838;2.402;2022-07-01T12:40:43;25.56;32.74
65854;DHT22;52627;48.838;2.402;2022-07-01T12:43:23;25.60;32.91
65854;DHT22;52627;48.838;2.402;2022-07-01T12:45:57;25.73;33.04
65854;DHT22;52627;48.838;2.402;2022-07-01T12:48:26;25.66;33.04
65854;DHT22;52627;48.838;2.402;2022-07-01T12:50:55;25.62;33.23
65854;DHT22;52627;48.838;2.402;2022-07-01T12:53:25;25.68;33.29
65854;DHT22;52627;48.838;2.402;2022-07-01T12:55:56;25.82;33.16
65854;DHT22;52627;48.838;2.402;2022-07-01T12:58:25;26.08;32.83
65854;DHT22;52627;48.838;2.402;2022-07-01T13:00:54;26.45;32.70
65854;DHT22;52627;48.838;2.402;2022-07-01T13:03:25;26.55;32.48
65854;DHT22;52627;48.838;2.402;2022-07-01T13:05:55;26.76;32.34
65854;DHT22;52627;48.838;2.402;2022-07-01T13:08:24;27.13;32.20
65854;DHT22;52627;48.838;2.402;2022-07-01T13:10:51;27.32;31.83
65854;DHT22;52627;48.838;2.402;2022-07-01T13:13:19;27.30;31.38
65854;DHT22;52627;48.838;2.402;2022-07-01T13:15:47;27.31;31.33
65854;DHT22;52627;48.838;2.402;2022-07-01T13:18:15;27.27;31.23
65854;DHT22;52627;48.838;2.402;2022-07-01T13:20:43;27.26;31.10
65854;DHT22;52627;48.838;2.402;2022-07-01T13:23:11;27.39;30.98
65854;DHT22;52627;48.838;2.402;2022-07-01T13:25:39;27.68;30.91
65854;DHT22;52627;48.838;2.402;2022-07-01T13:28:08;28.09;30.58
65854;DHT22;52627;48.838;2.402;2022-07-01T13:30:36;28.48;30.35
65854;DHT22;52627;48.838;2.402;2022-07-01T13:33:04;28.80;30.09
65854;DHT22;52627;48.838;2.402;2022-07-01T13:35:34;29.04;29.73
65854;DHT22;52627;48.838;2.402;2022-07-01T13:38:02;29.22;29.67
65854;DHT22;52627;48.838;2.402;2022-07-01T13:40:29;29.20;29.46
65854;DHT22;52627;48.838;2.402;2022-07-01T13:42:57;29.05;29.21
65854;DHT22;52627;48.838;2.402;2022-07-01T13:45:24;29.27;29.01
65854;DHT22;52627;48.838;2.402;2022-07-01T13:47:53;29.56;28.77
65854;DHT22;52627;48.838;2.402;2022-07-01T13:50:21;29.82;28.57
65854;DHT22;52627;48.838;2.402;2022-07-01T13:52:48;29.89;28.48
65854;DHT22;52627;48.838;2.402;2022-07-01T13:55:17;29.78;28.49
65854;DHT22;52627;48.838;2.402;2022-07-01T13:57:45;29.44;28.24
65854;DHT22;52627;48.838;2.402;2022-07-01T14:00:14;29.03;28.39
65854;DHT22;52627;48.838;2.402;2022-07-01T14:02:42;28.74;28.29
65854;DHT22;52627;48.838;2.402;2022-07-01T14:05:10;28.36;28.24
65854;DHT22;52627;48.838;2.402;2022-07-01T14:07:37;27.99;28.32
65854;DHT22;52627;48.838;2.402;2022-07-01T14:10:06;27.73;28.42
65854;DHT22;52627;48.838;2.402;2022-07-01T14:12:34;27.53;28.53
65854;DHT22;52627;48.838;2.402;2022-07-01T14:15:10;27.39;28.69
65854;DHT22;52627;48.838;2.402;2022-07-01T14:17:38;27.25;28.88
65854;DHT22;52627;48.838;2.402;2022-07-01T14:20:10;27.12;29.13
65854;DHT22;52627;48.838;2.402;2022-07-01T14:22:38;26.96;29.30
65854;DHT22;52627;48.838;2.402;2022-07-01T14:25:08;26.87;29.62
65854;DHT22;52627;48.838;2.402;2022-07-01T14:27:36;26.83;29.84
65854;DHT22;52627;48.838;2.402;2022-07-01T14:30:04;26.74;29.97
65854;DHT22;52627;48.838;2.402;2022-07-01T14:32:35;26.66;30.09
65854;DHT22;52627;48.838;2.402;2022-07-01T14:35:04;26.57;30.28
65854;DHT22;52627;48.838;2.402;2022-07-01T14:37:33;26.46;30.50
65854;DHT22;52627;48.838;2.402;2022-07-01T14:40:01;26.36;30.67
65854;DHT22;52627;48.838;2.402;2022-07-01T14:42:39;26.27;30.82
65854;DHT22;52627;48.838;2.402;2022-07-01T14:45:07;26.25;30.99
65854;DHT22;52627;48.838;2.402;2022-07-01T14:47:35;26.26;31.25
65854;DHT22;52627;48.838;2.402;2022-07-01T14:50:03;26.21;31.37
65854;DHT22;52627;48.838;2.402;2022-07-01T14:52:31;26.20;31.47
65854;DHT22;52627;48.838;2.402;2022-07-01T14:54:59;26.17;31.51
65854;DHT22;52627;48.838;2.402;2022-07-01T14:57:27;26.14;31.60
65854;DHT22;52627;48.838;2.402;2022-07-01T14:59:55;26.12;31.60
65854;DHT22;52627;48.838;2.402;2022-07-01T15:02:24;26.04;31.62
65854;DHT22;52627;48.838;2.402;2022-07-01T15:04:52;26.01;31.74
65854;DHT22;52627;48.838;2.402;2022-07-01T15:07:20;26.02;31.78
65854;DHT22;52627;48.838;2.402;2022-07-01T15:09:47;26.07;31.87
65854;DHT22;52627;48.838;2.402;2022-07-01T15:12:15;26.13;31.87
65854;DHT22;52627;48.838;2.402;2022-07-01T15:14:43;26.17;31.96
65854;DHT22;52627;48.838;2.402;2022-07-01T15:17:10;26.22;31.99
65854;DHT22;52627;48.838;2.402;2022-07-01T15:19:38;26.21;32.00
65854;DHT22;52627;48.838;2.402;2022-07-01T15:22:07;26.16;32.00
65854;DHT22;52627;48.838;2.402;2022-07-01T15:24:36;26.09;32.06
65854;DHT22;52627;48.838;2.402;2022-07-01T15:27:05;26.04;32.13
65854;DHT22;52627;48.838;2.402;2022-07-01T15:29:34;25.98;32.17
65854;DHT22;52627;48.838;2.402;2022-07-01T15:32:02;25.92;32.16
65854;DHT22;52627;48.838;2.402;2022-07-01T15:34:30;25.90;32.03
65854;DHT22;52627;48.838;2.402;2022-07-01T15:36:57;25.92;32.14
65854;DHT22;52627;48.838;2.402;2022-07-01T15:39:25;25.94;32.12
65854;DHT22;52627;48.838;2.402;2022-07-01T15:41:52;25.98;32.17
65854;DHT22;52627;48.838;2.402;2022-07-01T15:44:20;26.01;32.18
65854;DHT22;52627;48.838;2.402;2022-07-01T15:46:47;26.05;32.10
65854;DHT22;52627;48.838;2.402;2022-07-01T15:49:15;25.95;32.01